createdAt,value
2018-09-10T00:00:33.583Z,97329.20
2018-09-10T00:02:10.636Z,97331.02
2018-09-10T00:03:45.733Z,97327.45
2018-09-10T00:05:21.072Z,97330.60
2018-09-10T00:06:56.466Z,97332.26
2018-09-10T00:08:32.517Z,97325.87
2018-09-10T00:10:09.648Z,97327.30
2018-09-10T00:11:46.282Z,97319.99
2018-09-10T00:13:21.592Z,97321.44
2018-09-10T00:14:57.948Z,97326.91
2018-09-10T00:16:34.046Z,97326.38
2018-09-10T00:18:09.208Z,97329.41
2018-09-10T00:19:44.083Z,97330.98
2018-09-10T00:21:22.226Z,97322.91
2018-09-10T00:23:04.767Z,97323.97
2018-09-10T00:24:44.782Z,97319.46
2018-09-10T00:26:23.366Z,97319.41
2018-09-10T00:28:06.677Z,97326.50
2018-09-10T00:29:43.693Z,97324.64
2018-09-10T00:31:19.088Z,97325.06
2018-09-10T00:32:53.924Z,97324.63
2018-09-10T00:34:29.273Z,97329.41
2018-09-10T00:36:04.381Z,97325.11
2018-09-10T00:37:39.982Z,97322.04
2018-09-10T00:39:15.974Z,97323.13
2018-09-10T00:40:51.199Z,97325.44
2018-09-10T00:42:26.739Z,97322.25
2018-09-10T00:44:02.111Z,97325.29
2018-09-10T00:45:37.301Z,97326.48
2018-09-10T00:47:12.789Z,97322.76
2018-09-10T00:48:47.876Z,97325.48
2018-09-10T00:50:22.757Z,97323.97
2018-09-10T00:51:57.905Z,97317.27
2018-09-10T00:53:32.924Z,97318.41
2018-09-10T00:55:08.492Z,97320.72
2018-09-10T00:56:43.396Z,97323.80
2018-09-10T00:58:18.720Z,97320.23
2018-09-10T00:59:54.521Z,97316.78
2018-09-10T01:01:30.436Z,97316.45
2018-09-10T01:03:07.118Z,97310.24
2018-09-10T01:06:40.848Z,97312.34
2018-09-10T01:08:16.632Z,97318.96
2018-09-10T01:09:52.156Z,97312.88
2018-09-10T01:11:27.379Z,97321.92
2018-09-10T01:13:02.674Z,97324.51
2018-09-10T01:14:37.891Z,97317.58
2018-09-10T01:16:12.866Z,97319.88
2018-09-10T01:17:48.720Z,97325.70
2018-09-10T01:19:24.429Z,97325.58
2018-09-10T01:20:59.802Z,97320.08
2018-09-10T01:22:35.306Z,97318.47
2018-09-10T01:24:10.484Z,97323.80
2018-09-10T01:25:46.171Z,97321.62
2018-09-10T01:27:21.431Z,97318.63
2018-09-10T01:28:57.325Z,97317.38
2018-09-10T01:30:33.310Z,97319.93
2018-09-10T01:32:25.147Z,97316.85
2018-09-10T01:34:05.237Z,97314.88
2018-09-10T01:35:40.132Z,97318.51
2018-09-10T01:37:15.451Z,97316.42
2018-09-10T01:38:50.533Z,97315.33
2018-09-10T01:40:26.781Z,97321.95
2018-09-10T01:42:02.257Z,97317.63
2018-09-10T01:43:37.890Z,97319.53
2018-09-10T01:45:15.160Z,97322.11
2018-09-10T01:46:50.626Z,97311.45
2018-09-10T01:48:26.042Z,97308.22
2018-09-10T01:50:01.379Z,97311.94
2018-09-10T01:51:36.321Z,97321.74
2018-09-10T01:53:16.085Z,97318.07
2018-09-10T01:54:51.465Z,97319.89
2018-09-10T01:56:26.846Z,97318.39
2018-09-10T01:58:02.039Z,97318.55
2018-09-10T01:59:37.665Z,97315.20
2018-09-10T02:01:12.840Z,97308.94
2018-09-10T02:02:48.724Z,97320.41
2018-09-10T02:04:24.650Z,97313.58
2018-09-10T02:06:00.556Z,97316.61
2018-09-10T02:07:36.321Z,97318.63
2018-09-10T02:09:11.706Z,97310.83
2018-09-10T02:10:48.225Z,97310.25
2018-09-10T02:12:25.269Z,97306.90
2018-09-10T02:14:00.940Z,97313.00
2018-09-10T02:15:41.968Z,97316.83
2018-09-10T02:17:19.290Z,97310.76
2018-09-10T02:18:55.078Z,97305.27
2018-09-10T02:20:30.686Z,97308.48
2018-09-10T02:22:06.458Z,97308.80
2018-09-10T02:23:41.945Z,97305.60
2018-09-10T02:25:17.844Z,97299.66
2018-09-10T02:26:53.699Z,97300.90
2018-09-10T02:28:29.523Z,97299.97
2018-09-10T02:30:07.450Z,97299.20
2018-09-10T02:31:43.375Z,97303.33
2018-09-10T02:33:19.514Z,97301.95
2018-09-10T02:34:55.544Z,97298.75
2018-09-10T02:36:31.138Z,97294.63
2018-09-10T02:38:07.077Z,97295.85
2018-09-10T02:39:42.238Z,97295.37
2018-09-10T02:41:17.799Z,97294.48
2018-09-10T02:42:52.964Z,97294.90
2018-09-10T02:44:28.597Z,97297.50
2018-09-10T02:46:04.590Z,97299.13
2018-09-10T02:47:41.705Z,97304.16
2018-09-10T02:49:19.297Z,97303.25
2018-09-10T02:50:55.751Z,97305.52
2018-09-10T02:52:31.418Z,97302.94
2018-09-10T02:54:07.475Z,97300.95
2018-09-10T02:55:43.675Z,97303.57
2018-09-10T02:57:19.147Z,97295.30
2018-09-10T02:58:54.550Z,97301.88
2018-09-10T03:00:29.798Z,97293.16
2018-09-10T03:02:04.763Z,97288.59
2018-09-10T03:03:40.791Z,97286.00
2018-09-10T03:05:15.658Z,97285.78
2018-09-10T03:06:51.505Z,97290.99
2018-09-10T03:08:26.925Z,97289.59
2018-09-10T03:10:02.516Z,97292.14
2018-09-10T03:11:37.854Z,97286.05
2018-09-10T03:13:13.054Z,97289.97
2018-09-10T03:14:48.440Z,97285.40
2018-09-10T03:16:25.021Z,97283.26
2018-09-10T03:18:00.470Z,97284.44
2018-09-10T03:19:36.251Z,97283.23
2018-09-10T03:21:11.788Z,97286.70
2018-09-10T03:22:47.082Z,97293.28
2018-09-10T03:24:22.156Z,97296.27
2018-09-10T03:25:58.011Z,97297.03
2018-09-10T03:27:33.679Z,97301.11
2018-09-10T03:29:08.802Z,97297.56
2018-09-10T03:30:43.839Z,97299.56
2018-09-10T03:32:18.662Z,97293.84
2018-09-10T03:33:54.128Z,97295.66
2018-09-10T03:35:28.991Z,97304.63
2018-09-10T03:37:05.608Z,97297.55
2018-09-10T03:38:41.114Z,97300.58
2018-09-10T03:40:15.980Z,97292.78
2018-09-10T03:41:51.347Z,97296.73
2018-09-10T03:43:26.455Z,97292.02
2018-09-10T03:45:01.279Z,97286.25
2018-09-10T03:46:36.390Z,97292.45
2018-09-10T03:48:11.182Z,97289.18
2018-09-10T03:49:46.728Z,97288.09
2018-09-10T03:51:21.774Z,97292.75
2018-09-10T03:52:56.690Z,97285.34
2018-09-10T03:54:31.707Z,97291.30
2018-09-10T03:56:10.084Z,97288.73
2018-09-10T03:57:46.821Z,97297.67
2018-09-10T03:59:21.877Z,97295.93
2018-09-10T04:00:57.002Z,97300.00
2018-09-10T04:02:32.383Z,97300.36
2018-09-10T04:04:08.049Z,97298.23
2018-09-10T04:05:43.109Z,97307.21
2018-09-10T04:07:20.907Z,97297.63
2018-09-10T04:08:56.420Z,97296.09
2018-09-10T04:10:31.546Z,97299.53
2018-09-10T04:12:08.236Z,97290.70
2018-09-10T04:14:00.589Z,97295.87
2018-09-10T04:15:35.867Z,97297.06
2018-09-10T04:17:12.319Z,97299.92
2018-09-10T04:18:48.509Z,97307.16
2018-09-10T04:20:25.601Z,97309.68
2018-09-10T04:22:01.353Z,97312.70
2018-09-10T04:23:37.300Z,97309.20
2018-09-10T04:25:12.772Z,97309.58
2018-09-10T04:26:48.897Z,97314.02
2018-09-10T04:28:24.183Z,97319.06
2018-09-10T04:30:02.647Z,97323.11
2018-09-10T04:31:40.683Z,97315.85
2018-09-10T04:33:17.731Z,97319.92
2018-09-10T04:36:50.600Z,97310.70
2018-09-10T04:38:25.503Z,97308.62
2018-09-10T04:40:02.372Z,97315.02
2018-09-10T04:41:42.001Z,97305.58
2018-09-10T04:43:16.990Z,97305.02
2018-09-10T04:44:51.866Z,97309.59
2018-09-10T04:46:26.723Z,97320.00
2018-09-10T04:48:02.232Z,97316.98
2018-09-10T04:49:37.270Z,97319.00
2018-09-10T04:51:12.285Z,97324.50
2018-09-10T04:52:47.138Z,97319.65
2018-09-10T04:54:22.042Z,97315.67
2018-09-10T04:55:57.233Z,97309.28
2018-09-10T04:57:32.139Z,97309.42
2018-09-10T04:59:07.017Z,97305.61
2018-09-10T05:00:42.745Z,97308.05
2018-09-10T05:02:17.686Z,97306.08
2018-09-10T05:04:01.369Z,97314.94
2018-09-10T05:09:32.432Z,97328.55
2018-09-10T05:11:27.306Z,97326.71
2018-09-10T05:13:09.450Z,97327.64
2018-09-10T05:14:54.146Z,97332.52
2018-09-10T05:16:30.032Z,97337.88
2018-09-10T05:18:05.462Z,97338.65
2018-09-10T05:19:40.443Z,97345.08
2018-09-10T05:21:22.733Z,97344.61
2018-09-10T05:22:58.449Z,97339.56
2018-09-10T05:24:34.067Z,97340.95
2018-09-10T05:26:10.585Z,97341.09
2018-09-10T05:27:45.749Z,97338.02
2018-09-10T05:29:21.094Z,97342.78
2018-09-10T05:31:10.393Z,97348.59
2018-09-10T05:32:47.790Z,97355.63
2018-09-10T05:34:23.044Z,97347.66
2018-09-10T05:35:58.136Z,97344.58
2018-09-10T05:37:33.782Z,97349.02
2018-09-10T05:39:10.298Z,97349.78
2018-09-10T05:40:45.389Z,97343.05
2018-09-10T05:42:20.946Z,97349.48
2018-09-10T05:43:56.527Z,97344.12
2018-09-10T05:45:35.734Z,97343.52
2018-09-10T05:47:11.914Z,97348.27
2018-09-10T05:48:48.535Z,97344.28
2018-09-10T05:50:24.237Z,97348.72
2018-09-10T05:51:59.273Z,97349.48
2018-09-10T05:53:34.360Z,97347.47
2018-09-10T05:55:09.363Z,97350.98
2018-09-10T05:56:44.621Z,97356.04
2018-09-10T05:58:19.631Z,97357.84
2018-09-10T05:59:54.624Z,97354.47
2018-09-10T06:01:29.845Z,97340.81
2018-09-10T06:03:05.715Z,97346.31
2018-09-10T06:04:40.896Z,97338.77
2018-09-10T06:06:15.976Z,97341.69
2018-09-10T06:07:51.236Z,97338.15
2018-09-10T06:09:26.187Z,97338.75
2018-09-10T06:11:02.973Z,97352.70
2018-09-10T06:12:38.837Z,97355.56
2018-09-10T06:14:13.944Z,97355.42
2018-09-10T06:15:48.978Z,97354.80
2018-09-10T06:17:23.961Z,97351.13
2018-09-10T06:18:59.286Z,97350.95
2018-09-10T06:20:34.168Z,97345.44
2018-09-10T06:22:09.991Z,97344.78
2018-09-10T06:23:44.889Z,97348.81
2018-09-10T06:25:20.175Z,97346.00
2018-09-10T06:26:55.968Z,97351.98
2018-09-10T06:28:31.108Z,97355.95
2018-09-10T06:30:08.834Z,97359.19
2018-09-10T06:31:45.986Z,97360.88
2018-09-10T06:33:24.508Z,97362.39
2018-09-10T06:35:04.560Z,97373.58
2018-09-10T06:36:43.720Z,97369.86
2018-09-10T06:38:20.558Z,97372.01
2018-09-10T06:39:56.994Z,97371.84
2018-09-10T06:43:33.053Z,97377.98
2018-09-10T06:45:09.862Z,97378.12
2018-09-10T06:46:47.844Z,97379.29
2018-09-10T06:48:27.247Z,97372.04
2018-09-10T06:50:03.791Z,97368.81
2018-09-10T06:51:41.623Z,97353.31
2018-09-10T06:53:17.932Z,97361.90
2018-09-10T06:54:53.884Z,97361.75
2018-09-10T06:56:33.125Z,97362.31
2018-09-10T06:58:11.373Z,97370.58
2018-09-10T06:59:48.506Z,97376.86
2018-09-10T07:01:24.894Z,97386.50
2018-09-10T07:03:00.872Z,97396.13
2018-09-10T07:04:36.823Z,97398.63
2018-09-10T07:06:20.234Z,97412.08
2018-09-10T07:07:55.882Z,97415.53
2018-09-10T07:09:31.953Z,97416.20
2018-09-10T07:11:07.690Z,97417.28
2018-09-10T07:12:43.438Z,97409.77
2018-09-10T07:14:19.301Z,97412.67
2018-09-10T07:15:56.925Z,97400.77
2018-09-10T07:17:33.166Z,97397.88
2018-09-10T07:19:09.636Z,97397.02
2018-09-10T07:20:45.438Z,97389.71
2018-09-10T07:22:21.623Z,97374.78
2018-09-10T07:23:57.291Z,97369.25
2018-09-10T07:25:32.985Z,97365.11
2018-09-10T07:27:08.754Z,97365.55
2018-09-10T07:28:44.752Z,97365.95
2018-09-10T07:30:23.236Z,97365.16
2018-09-10T07:31:58.908Z,97367.05
2018-09-10T07:33:55.265Z,97368.37
2018-09-10T07:35:32.884Z,97368.45
2018-09-10T07:37:09.204Z,97368.11
2018-09-10T07:38:44.817Z,97370.69
2018-09-10T07:40:21.573Z,97374.59
2018-09-10T07:41:59.800Z,97368.89
2018-09-10T07:43:35.612Z,97380.20
2018-09-10T07:45:16.491Z,97383.12
2018-09-10T07:46:52.438Z,97380.62
2018-09-10T07:48:28.307Z,97366.50
2018-09-10T07:50:04.516Z,97363.00
2018-09-10T07:51:39.464Z,97363.09
2018-09-10T07:53:14.393Z,97360.84
2018-09-10T07:54:49.802Z,97361.86
2018-09-10T07:56:25.661Z,97362.56
2018-09-10T07:58:02.819Z,97362.48
2018-09-10T07:59:38.632Z,97358.48
2018-09-10T08:01:38.173Z,97355.38
2018-09-10T08:03:18.243Z,97357.76
2018-09-10T08:04:53.276Z,97357.42
2018-09-10T08:06:29.490Z,97352.02
2018-09-10T08:08:06.616Z,97352.28
2018-09-10T08:09:43.538Z,97354.98
2018-09-10T08:11:18.540Z,97351.77
2018-09-10T08:12:54.099Z,97355.44
2018-09-10T08:14:29.958Z,97350.13
2018-09-10T08:16:05.381Z,97358.35
2018-09-10T08:17:40.849Z,97356.53
2018-09-10T08:19:18.457Z,97351.92
2018-09-10T08:20:53.791Z,97356.11
2018-09-10T08:22:30.347Z,97367.92
2018-09-10T08:24:05.941Z,97374.41
2018-09-10T08:25:43.318Z,97374.27
2018-09-10T08:27:18.620Z,97375.23
2018-09-10T08:28:54.098Z,97378.64
2018-09-10T08:30:29.495Z,97383.21
2018-09-10T08:33:48.216Z,97380.72
2018-09-10T08:35:25.592Z,97384.20
2018-09-10T08:37:02.559Z,97382.34
2018-09-10T08:38:38.499Z,97388.13
2018-09-10T08:40:14.560Z,97387.59
2018-09-10T08:41:50.939Z,97388.89
2018-09-10T08:43:27.346Z,97386.61
2018-09-10T08:45:03.949Z,97396.78
2018-09-10T08:46:39.163Z,97404.69
2018-09-10T08:48:14.791Z,97402.61
2018-09-10T08:49:50.394Z,97404.16
2018-09-10T08:52:35.204Z,97402.31
2018-09-10T08:54:11.021Z,97408.90
2018-09-10T08:55:46.575Z,97412.09
2018-09-10T08:57:21.780Z,97412.55
2018-09-10T08:58:56.816Z,97408.81
2018-09-10T09:00:33.784Z,97409.84
2018-09-10T09:02:09.327Z,97406.09
2018-09-10T09:03:45.124Z,97399.34
2018-09-10T09:05:24.571Z,97395.35
2018-09-10T09:06:59.865Z,97402.81
2018-09-10T09:08:35.569Z,97395.09
2018-09-10T09:10:11.522Z,97393.75
2018-09-10T09:11:46.790Z,97392.22
2018-09-10T09:13:21.812Z,97393.69
2018-09-10T09:14:56.786Z,97391.45
2018-09-10T09:16:32.031Z,97389.67
2018-09-10T09:18:07.145Z,97385.72
2018-09-10T09:19:43.187Z,97385.70
2018-09-10T09:21:19.854Z,97385.32
2018-09-10T09:22:54.969Z,97385.47
2018-09-10T09:24:31.319Z,97391.02
2018-09-10T09:26:07.279Z,97390.48
2018-09-10T09:27:42.342Z,97391.92
2018-09-10T09:29:19.939Z,97383.58
2018-09-10T09:30:55.524Z,97386.67
2018-09-10T09:32:30.650Z,97392.14
2018-09-10T09:34:06.552Z,97397.70
2018-09-10T09:35:46.446Z,97394.66
2018-09-10T09:37:26.483Z,97402.85
2018-09-10T09:39:07.929Z,97410.34
2018-09-10T09:40:48.980Z,97416.31
2018-09-10T09:42:30.354Z,97408.59
2018-09-10T09:44:11.253Z,97410.48
2018-09-10T09:45:51.424Z,97407.48
2018-09-10T09:47:27.631Z,97410.70
2018-09-10T09:49:02.655Z,97411.24
2018-09-10T09:50:37.618Z,97409.77
2018-09-10T09:52:12.507Z,97402.39
2018-09-10T09:53:48.368Z,97408.34
2018-09-10T09:55:23.240Z,97411.64
2018-09-10T09:57:01.080Z,97417.08
2018-09-10T09:58:36.490Z,97411.88
2018-09-10T10:00:17.256Z,97408.70
2018-09-10T10:01:53.832Z,97404.52
2018-09-10T10:03:35.097Z,97404.80
2018-09-10T10:05:10.042Z,97407.33
2018-09-10T10:06:45.620Z,97412.34
2018-09-10T10:08:21.100Z,97406.80
2018-09-10T10:09:56.505Z,97403.78
2018-09-10T10:11:32.496Z,97402.20
2018-09-10T10:13:12.487Z,97401.48
2018-09-10T10:14:48.323Z,97396.09
2018-09-10T10:16:29.941Z,97393.33
2018-09-10T10:18:07.831Z,97400.48
2018-09-10T10:19:43.884Z,97404.07
2018-09-10T10:21:20.653Z,97407.88
2018-09-10T10:22:56.066Z,97405.88
2018-09-10T10:24:30.874Z,97396.58
2018-09-10T10:26:07.119Z,97405.27
2018-09-10T10:27:43.226Z,97411.20
2018-09-10T10:29:18.714Z,97412.22
2018-09-10T10:30:56.961Z,97406.75
2018-09-10T10:32:32.921Z,97410.94
2018-09-10T10:34:09.516Z,97409.84
2018-09-10T10:35:44.354Z,97411.97
2018-09-10T10:37:19.219Z,97404.38
2018-09-10T10:39:03.557Z,97398.83
2018-09-10T10:40:38.413Z,97404.92
2018-09-10T10:42:14.045Z,97398.46
2018-09-10T10:43:49.250Z,97395.06
2018-09-10T10:45:26.181Z,97393.56
2018-09-10T10:47:03.401Z,97389.09
2018-09-10T10:48:40.780Z,97389.10
2018-09-10T10:50:17.518Z,97383.03
2018-09-10T10:51:53.557Z,97381.56
2018-09-10T10:53:28.713Z,97379.40
2018-09-10T10:55:06.062Z,97387.61
2018-09-10T10:56:42.412Z,97395.95
2018-09-10T10:58:21.325Z,97399.62
2018-09-10T10:59:56.293Z,97397.75
2018-09-10T11:01:31.975Z,97401.70
2018-09-10T11:03:08.541Z,97402.64
2018-09-10T11:04:44.386Z,97407.34
2018-09-10T11:06:20.365Z,97403.86
2018-09-10T11:07:55.348Z,97409.44
2018-09-10T11:09:32.545Z,97397.78
2018-09-10T11:11:14.679Z,97404.25
2018-09-10T11:12:50.969Z,97403.06
2018-09-10T11:14:26.245Z,97412.10
2018-09-10T11:16:02.560Z,97406.80
2018-09-10T11:17:39.748Z,97414.02
2018-09-10T11:19:14.919Z,97407.19
2018-09-10T11:20:50.969Z,97409.84
2018-09-10T11:22:26.409Z,97419.59
2018-09-10T11:24:02.585Z,97418.32
2018-09-10T11:25:41.697Z,97416.03
2018-09-10T11:27:18.896Z,97413.86
2018-09-10T11:28:55.681Z,97413.02
2018-09-10T11:30:32.499Z,97414.02
2018-09-10T11:32:20.552Z,97408.21
2018-09-10T11:33:59.450Z,97406.78
2018-09-10T11:35:39.491Z,97412.98
2018-09-10T11:37:21.856Z,97406.15
2018-09-10T11:38:58.100Z,97401.73
2018-09-10T11:40:33.031Z,97403.52
2018-09-10T11:42:08.473Z,97402.36
2018-09-10T11:43:45.980Z,97406.19
2018-09-10T11:45:21.435Z,97403.66
2018-09-10T11:46:58.113Z,97413.78
2018-09-10T11:48:33.106Z,97413.73
2018-09-10T11:50:12.323Z,97401.11
2018-09-10T11:51:47.384Z,97411.20
2018-09-10T11:53:23.529Z,97402.13
2018-09-10T11:55:00.953Z,97398.56
2018-09-10T11:56:36.442Z,97391.43
2018-09-10T11:58:13.418Z,97394.22
2018-09-10T11:59:48.768Z,97388.59
2018-09-10T12:01:23.619Z,97393.33
2018-09-10T12:02:59.314Z,97386.53
2018-09-10T12:04:36.025Z,97389.84
2018-09-10T12:06:11.201Z,97399.89
2018-09-10T12:07:47.841Z,97394.66
2018-09-10T12:09:23.411Z,97400.66
2018-09-10T12:10:59.582Z,97394.75
2018-09-10T12:12:35.249Z,97392.55
2018-09-10T12:14:13.938Z,97391.61
2018-09-10T12:15:51.763Z,97397.30
2018-09-10T12:17:42.867Z,97397.27
2018-09-10T12:19:18.752Z,97388.36
2018-09-10T12:20:56.914Z,97394.52
2018-09-10T12:22:33.154Z,97394.52
2018-09-10T12:24:15.289Z,97405.53
2018-09-10T12:25:50.888Z,97401.48
2018-09-10T12:27:28.892Z,97399.60
2018-09-10T12:29:06.725Z,97398.67
2018-09-10T12:30:44.128Z,97401.37
2018-09-10T12:32:26.919Z,97403.53
2018-09-10T12:34:03.662Z,97414.94
2018-09-10T12:35:39.748Z,97410.23
2018-09-10T12:37:17.832Z,97420.06
2018-09-10T12:38:54.170Z,97420.27
2018-09-10T12:40:31.668Z,97428.70
2018-09-10T12:42:08.870Z,97425.75
2018-09-10T12:43:44.096Z,97431.31
2018-09-10T12:45:19.287Z,97434.81
2018-09-10T12:46:55.272Z,97438.03
2018-09-10T12:48:34.762Z,97442.95
2018-09-10T12:50:12.066Z,97447.72
2018-09-10T12:51:48.265Z,97448.30
2018-09-10T12:53:23.652Z,97444.15
2018-09-10T12:55:01.131Z,97447.94
2018-09-10T12:56:38.629Z,97449.55
2018-09-10T12:58:15.680Z,97445.08
2018-09-10T12:59:54.235Z,97446.48
2018-09-10T13:01:31.189Z,97449.38
2018-09-10T13:03:06.922Z,97457.13
2018-09-10T13:04:45.214Z,97458.22
2018-09-10T13:06:21.638Z,97458.45
2018-09-10T13:07:57.690Z,97457.05
2018-09-10T13:09:34.129Z,97454.91
2018-09-10T13:11:18.777Z,97450.53
2018-09-10T13:12:56.197Z,97453.69
2018-09-10T13:14:32.623Z,97457.09
2018-09-10T13:16:15.782Z,97462.37
2018-09-10T13:18:04.005Z,97459.47
2018-09-10T13:19:42.203Z,97456.73
2018-09-10T13:21:18.120Z,97449.02
2018-09-10T13:22:59.071Z,97452.94
2018-09-10T13:24:38.386Z,97450.55
2018-09-10T13:26:15.039Z,97457.22
2018-09-10T13:27:57.959Z,97457.09
2018-09-10T13:29:34.965Z,97464.69
2018-09-10T13:31:15.478Z,97463.91
2018-09-10T13:32:56.173Z,97466.10
2018-09-10T13:34:31.739Z,97464.22
2018-09-10T13:36:10.710Z,97465.53
2018-09-10T13:37:48.973Z,97466.31
2018-09-10T13:39:26.304Z,97453.38
2018-09-10T13:41:08.709Z,97456.30
2018-09-10T13:42:47.570Z,97447.87
2018-09-10T13:44:41.685Z,97444.38
2018-09-10T13:46:17.848Z,97449.70
2018-09-10T13:47:56.467Z,97447.45
2018-09-10T13:49:37.664Z,97437.66
2018-09-10T13:51:16.315Z,97433.30
2018-09-10T13:52:56.256Z,97425.22
2018-09-10T13:54:42.843Z,97420.24
2018-09-10T13:58:20.803Z,97416.75
2018-09-10T13:59:59.582Z,97412.52
2018-09-10T14:01:37.323Z,97420.78
2018-09-10T14:03:19.581Z,97410.81
2018-09-10T14:05:01.482Z,97416.14
2018-09-10T14:06:37.351Z,97415.09
2018-09-10T14:08:13.484Z,97421.97
2018-09-10T14:09:49.743Z,97424.48
2018-09-10T14:11:25.982Z,97426.56
2018-09-10T14:13:01.808Z,97422.03
2018-09-10T14:14:56.907Z,97421.09
2018-09-10T14:16:36.218Z,97421.91
2018-09-10T14:18:26.164Z,97420.09
2018-09-10T14:20:05.909Z,97425.66
2018-09-10T14:21:47.690Z,97432.97
2018-09-10T14:23:35.797Z,97433.73
2018-09-10T14:25:11.552Z,97430.98
2018-09-10T14:26:47.411Z,97432.06
2018-09-10T14:28:24.846Z,97431.30
2018-09-10T14:30:03.080Z,97429.64
2018-09-10T14:31:44.911Z,97424.09
2018-09-10T14:33:20.116Z,97423.11
2018-09-10T14:34:58.501Z,97418.53
2018-09-10T14:36:39.639Z,97424.03
2018-09-10T14:38:19.952Z,97418.36
2018-09-10T14:39:58.734Z,97413.44
2018-09-10T14:41:35.246Z,97406.94
2018-09-10T14:43:11.320Z,97415.75
2018-09-10T14:44:47.458Z,97408.59
2018-09-10T14:46:27.341Z,97405.98
2018-09-10T14:48:03.122Z,97406.17
2018-09-10T14:49:38.797Z,97413.03
2018-09-10T14:51:16.954Z,97419.75
2018-09-10T14:52:55.574Z,97415.11
2018-09-10T14:54:33.370Z,97418.38
2018-09-10T14:56:12.400Z,97412.83
2018-09-10T14:57:50.643Z,97419.27
2018-09-10T14:59:27.445Z,97420.05
2018-09-10T15:01:05.916Z,97422.70
2018-09-10T15:02:43.564Z,97424.36
2018-09-10T15:04:19.647Z,97425.91
2018-09-10T15:05:56.391Z,97423.73
2018-09-10T15:07:31.838Z,97425.40
2018-09-10T15:09:08.895Z,97426.05
2018-09-10T15:10:43.733Z,97432.85
2018-09-10T15:12:19.095Z,97439.00
2018-09-10T15:13:55.527Z,97435.59
2018-09-10T15:15:31.850Z,97442.27
2018-09-10T15:17:06.848Z,97448.78
2018-09-10T15:18:43.362Z,97442.84
2018-09-10T15:20:19.141Z,97437.27
2018-09-10T15:21:59.445Z,97443.34
2018-09-10T15:23:37.008Z,97437.27
2018-09-10T15:25:13.230Z,97436.15
2018-09-10T15:26:54.851Z,97440.97
2018-09-10T15:28:35.784Z,97447.56
2018-09-10T15:30:17.548Z,97448.39
2018-09-10T15:31:55.111Z,97449.43
2018-09-10T15:35:34.678Z,97463.09
2018-09-10T15:37:13.642Z,97462.30
2018-09-10T15:39:00.592Z,97467.74
2018-09-10T15:40:42.277Z,97470.23
2018-09-10T15:49:55.033Z,97464.52
2018-09-10T15:51:31.602Z,97459.42
2018-09-10T15:53:07.834Z,97460.91
2018-09-10T15:54:45.360Z,97464.86
2018-09-10T15:56:23.710Z,97470.08
2018-09-10T16:01:38.847Z,97464.67
2018-09-10T16:03:14.023Z,97472.64
2018-09-10T16:04:50.999Z,97470.83
2018-09-10T16:06:38.446Z,97466.95
2018-09-10T16:08:14.096Z,97467.91
2018-09-10T16:09:49.443Z,97474.03
2018-09-10T16:11:25.260Z,97469.87
2018-09-10T16:13:00.206Z,97475.00
2018-09-10T16:14:36.242Z,97478.45
2018-09-10T16:16:12.234Z,97472.43
2018-09-10T16:17:48.249Z,97467.87
2018-09-10T16:19:26.305Z,97463.01
2018-09-10T16:21:01.686Z,97463.29
2018-09-10T16:22:36.735Z,97458.66
2018-09-10T16:24:16.822Z,97458.91
2018-09-10T16:25:54.787Z,97455.66
2018-09-10T16:27:30.475Z,97455.37
2018-09-10T16:29:10.886Z,97457.38
2018-09-10T16:30:49.016Z,97455.94
2018-09-10T16:32:30.413Z,97457.95
2018-09-10T16:34:05.727Z,97449.89
2018-09-10T16:35:41.493Z,97450.11
2018-09-10T16:39:16.135Z,97445.95
2018-09-10T16:41:02.329Z,97445.20
2018-09-10T16:42:54.799Z,97442.82
2018-09-10T16:44:33.816Z,97444.72
2018-09-10T16:46:14.892Z,97446.35
2018-09-10T16:47:54.021Z,97446.72
2018-09-10T16:49:30.783Z,97443.05
2018-09-10T16:51:09.698Z,97446.77
2018-09-10T16:52:56.140Z,97446.91
2018-09-10T16:54:39.887Z,97450.25
2018-09-10T16:56:20.668Z,97456.42
2018-09-10T16:57:59.677Z,97453.84
2018-09-10T16:59:36.841Z,97451.89
2018-09-10T17:01:15.780Z,97454.38
2018-09-10T17:02:53.584Z,97452.50
2018-09-10T17:04:32.113Z,97444.95
2018-09-10T17:06:22.359Z,97446.20
2018-09-10T17:08:11.908Z,97442.86
2018-09-10T17:09:55.107Z,97439.55
2018-09-10T17:11:34.891Z,97440.50
2018-09-10T17:13:10.617Z,97445.15
2018-09-10T17:14:46.379Z,97449.09
2018-09-10T17:16:22.462Z,97445.13
2018-09-10T17:18:04.085Z,97441.23
2018-09-10T17:19:44.601Z,97439.09
2018-09-10T17:21:24.731Z,97443.69
2018-09-10T17:23:02.961Z,97457.24
2018-09-10T17:24:53.037Z,97461.44
2018-09-10T17:26:32.341Z,97460.27
2018-09-10T17:28:15.080Z,97461.69
2018-09-10T17:29:52.957Z,97464.74
2018-09-10T17:31:32.682Z,97460.02
2018-09-10T17:33:09.901Z,97456.63
2018-09-10T17:35:17.572Z,97447.09
2018-09-10T17:37:02.466Z,97446.10
2018-09-10T17:39:05.784Z,97452.14
2018-09-10T17:40:43.067Z,97454.69
2018-09-10T17:42:22.610Z,97456.72
2018-09-10T17:44:02.207Z,97455.44
2018-09-10T17:45:38.096Z,97455.94
2018-09-10T17:47:15.926Z,97465.85
2018-09-10T17:48:52.186Z,97465.14
2018-09-10T17:50:43.349Z,97470.41
2018-09-10T17:52:20.241Z,97469.69
2018-09-10T17:55:45.054Z,97463.30
2018-09-10T17:57:26.817Z,97472.20
2018-09-10T17:59:05.074Z,97464.41
2018-09-10T18:00:42.360Z,97469.34
2018-09-10T18:02:25.875Z,97470.58
2018-09-10T18:04:04.775Z,97481.02
2018-09-10T18:05:41.852Z,97482.56
2018-09-10T18:07:21.781Z,97476.20
2018-09-10T18:08:58.673Z,97481.16
2018-09-10T18:10:38.835Z,97480.13
2018-09-10T18:12:17.468Z,97485.08
2018-09-10T18:13:56.510Z,97489.08
2018-09-10T18:15:33.672Z,97495.37
2018-09-10T18:17:12.584Z,97499.66
2018-09-10T18:18:48.657Z,97494.45
2018-09-10T18:22:11.680Z,97491.17
2018-09-10T18:23:48.242Z,97488.77
2018-09-10T18:25:27.644Z,97499.84
2018-09-10T18:27:12.749Z,97502.03
2018-09-10T18:28:55.252Z,97507.28
2018-09-10T18:30:35.029Z,97505.58
2018-09-10T18:32:31.644Z,97513.88
2018-09-10T18:34:08.343Z,97518.83
2018-09-10T18:35:59.534Z,97514.84
2018-09-10T18:37:45.733Z,97507.63
2018-09-10T18:39:22.284Z,97502.58
2018-09-10T18:41:04.327Z,97508.09
2018-09-10T18:42:40.814Z,97499.81
2018-09-10T18:44:20.661Z,97508.71
2018-09-10T18:46:15.069Z,97513.78
2018-09-10T18:47:51.815Z,97512.30
2018-09-10T18:49:41.215Z,97512.77
2018-09-10T18:51:17.409Z,97526.77
2018-09-10T18:52:56.447Z,97528.30
2018-09-10T18:54:37.551Z,97529.84
2018-09-10T18:56:12.755Z,97536.59
2018-09-10T18:57:49.772Z,97529.84
2018-09-10T18:59:28.907Z,97525.39
2018-09-10T19:01:06.254Z,97520.49
2018-09-10T19:04:29.246Z,97519.30
2018-09-10T19:06:13.325Z,97512.06
2018-09-10T19:07:55.752Z,97513.64
2018-09-10T19:09:42.432Z,97511.65
2018-09-10T19:13:07.383Z,97512.50
2018-09-10T19:14:48.388Z,97523.84
2018-09-10T19:18:23.745Z,97511.89
2018-09-10T19:20:18.877Z,97506.39
2018-09-10T19:22:03.103Z,97506.38
2018-09-10T19:23:45.570Z,97492.45
2018-09-10T19:25:28.462Z,97492.00
2018-09-10T19:27:05.209Z,97490.61
2018-09-10T19:28:44.561Z,97492.26
2018-09-10T19:30:22.631Z,97492.27
2018-09-10T19:32:01.483Z,97485.84
2018-09-10T19:33:41.496Z,97490.25
2018-09-10T19:35:17.824Z,97483.52
2018-09-10T19:36:54.350Z,97479.52
2018-09-10T19:38:30.835Z,97477.52
2018-09-10T19:40:09.477Z,97470.48
2018-09-10T19:41:49.208Z,97474.72
2018-09-10T19:43:30.293Z,97473.84
2018-09-10T19:45:09.650Z,97468.61